Centreville, VA

8:04 PM EDT on July 07, 2015 (GMT -0400)
CENTREweather | | Change Station
CLOSE
Current Station
Personal Weather Station
Location: Centreville, VA
Elevation: 262 ft
Nearby Weather Stations

Elev 262 ft 38.85 °N, 77.46 °W | Updated 4 seconds ago

Clear
Clear
84.8 °F
Feels Like 91 °F
N
0.0
Wind Variable Wind from SSE
Gusts 0.0 mph

Today
High -- | Low -- °F
--% Chance of Precip.
Yesterday
High -- | Low -- °F
Precip. -- in
5:51 AM 8:37 PM
Waning Gibbous, 60% visible
Pressure 29.98 in
Visibility 10.0 miles
Clouds Few 5500 ft
Heat Index 91 °F
Dew Point 73 °F
Humidity 67%
Rainfall 0.00 in
Snow Depth Not available.
UV 0.0 out of 12
Pollen 3.20 out of 12
Air Quality Not available.
Flu Activity Not available.
METAR KIAD 072352Z 20006KT 10SM FEW055 28/21 A2999 RMK AO2 SLP151 T02780211 10306 20278 55004

More Conditions Fewer Conditions

Pressure 29.98 in
Visibility 10.0 miles
Clouds Few 5500 ft
Heat Index 91 °F
Dew Point 73 °F
Humidity 67%
Rainfall 0.00 in
Snow Depth Not available.
UV 0.0 out of 12
Pollen 3.20 out of 12
Air Quality Not available.
Flu Activity Not available.
METAR KIAD 072352Z 20006KT 10SM FEW055 28/21 A2999 RMK AO2 SLP151 T02780211 10306 20278 55004

More Conditions Fewer Conditions

10-Day Weather Forecast

×

Almanac

Astronomy

Jul. 07, 2015 Rise Set
Actual Time
Civil Twilight
Nautical Twilight
Astronomical Twilight
Moon
Length of Visible Light
Length of Day
Tomorrow will be .
, % of the Moon is Illuminated

Today's Extremes

State Highs State Lows

Community

WunderPhotos

Upload Photos

1,835,961 photos uploaded!

WunderBlogs® & News

Nearby

Air Quality

  Air Quality AQ Index Pollutant
Not available.

Snow Depth

Station Depth Elevation

Earthquake Activity

City Distance Mag. Time & Date
Minimum magnitude displayed is 2.5.

Coastal Water Temperatures

Place Temperature

Stations

Nearby Weather Stations

Station Location Temp. Windchill Dew Point Humidity Wind Precip. Elev Updated Type